sensor_id;sensor_type;location;lat;lon;timestamp;pressure;altitude;pressure_sealevel;temperature;humidity
28448;BME280;15675;52.870;-1.416;2022-08-01T00:01:34;101378.31;;;14.77;100.00
28448;BME280;15675;52.870;-1.416;2022-08-01T00:04:00;101384.44;;;14.72;100.00
28448;BME280;15675;52.870;-1.416;2022-08-01T00:06:26;101380.06;;;14.77;100.00
28448;BME280;15675;52.870;-1.416;2022-08-01T00:08:51;101378.31;;;14.85;100.00
28448;BME280;15675;52.870;-1.416;2022-08-01T00:11:17;101373.09;;;14.74;100.00
28448;BME280;15675;52.870;-1.416;2022-08-01T00:13:43;101380.97;;;14.65;100.00
28448;BME280;15675;52.870;-1.416;2022-08-01T00:16:09;101374.00;;;14.52;100.00
28448;BME280;15675;52.870;-1.416;2022-08-01T00:18:34;101379.25;;;14.44;100.00
28448;BME280;15675;52.870;-1.416;2022-08-01T00:21:02;101388.84;;;14.26;100.00
28448;BME280;15675;52.870;-1.416;2022-08-01T00:23:28;101385.38;;;14.23;100.00
28448;BME280;15675;52.870;-1.416;2022-08-01T00:25:54;101379.22;;;14.58;100.00
28448;BME280;15675;52.870;-1.416;2022-08-01T00:28:19;101377.47;;;14.78;100.00
28448;BME280;15675;52.870;-1.416;2022-08-01T00:30:45;101386.19;;;14.71;100.00
28448;BME280;15675;52.870;-1.416;2022-08-01T00:33:11;101387.06;;;14.67;100.00
28448;BME280;15675;52.870;-1.416;2022-08-01T00:35:36;101387.91;;;14.80;100.00
28448;BME280;15675;52.870;-1.416;2022-08-01T00:38:02;101387.09;;;14.45;100.00
28448;BME280;15675;52.870;-1.416;2022-08-01T00:40:28;101394.06;;;14.26;100.00
28448;BME280;15675;52.870;-1.416;2022-08-01T00:42:54;101388.84;;;14.23;100.00
28448;BME280;15675;52.870;-1.416;2022-08-01T00:45:19;101401.03;;;14.23;100.00
28448;BME280;15675;52.870;-1.416;2022-08-01T00:47:45;101390.59;;;14.12;100.00
28448;BME280;15675;52.870;-1.416;2022-08-01T00:50:11;101389.72;;;14.01;100.00
28448;BME280;15675;52.870;-1.416;2022-08-01T00:52:37;101381.88;;;13.76;100.00
28448;BME280;15675;52.870;-1.416;2022-08-01T00:55:04;101385.38;;;13.64;100.00
28448;BME280;15675;52.870;-1.416;2022-08-01T00:57:30;101384.47;;;13.57;100.00
28448;BME280;15675;52.870;-1.416;2022-08-01T00:59:55;101389.69;;;13.67;100.00
28448;BME280;15675;52.870;-1.416;2022-08-01T01:02:21;101389.72;;;14.13;100.00
28448;BME280;15675;52.870;-1.416;2022-08-01T01:04:47;101393.19;;;14.26;100.00
28448;BME280;15675;52.870;-1.416;2022-08-01T01:07:21;101387.09;;;14.30;100.00
28448;BME280;15675;52.870;-1.416;2022-08-01T01:10:22;101399.28;;;14.23;100.00
28448;BME280;15675;52.870;-1.416;2022-08-01T01:12:59;101398.44;;;13.98;100.00
28448;BME280;15675;52.870;-1.416;2022-08-01T01:18:32;101396.69;;;13.81;100.00
28448;BME280;15675;52.870;-1.416;2022-08-01T01:21:07;101408.88;;;13.89;100.00
28448;BME280;15675;52.870;-1.416;2022-08-01T01:23:50;101398.44;;;13.83;100.00
28448;BME280;15675;52.870;-1.416;2022-08-01T01:29:02;101404.47;;;13.69;100.00
28448;BME280;15675;52.870;-1.416;2022-08-01T01:31:36;101408.84;;;13.62;100.00
28448;BME280;15675;52.870;-1.416;2022-08-01T01:34:04;101401.88;;;13.64;100.00
28448;BME280;15675;52.870;-1.416;2022-08-01T01:36:31;101405.34;;;13.53;100.00
28448;BME280;15675;52.870;-1.416;2022-08-01T01:38:58;101404.44;;;13.41;100.00
28448;BME280;15675;52.870;-1.416;2022-08-01T01:41:25;101394.03;;;13.64;100.00
28448;BME280;15675;52.870;-1.416;2022-08-01T01:43:53;101393.13;;;13.39;100.00
28448;BME280;15675;52.870;-1.416;2022-08-01T01:46:24;101403.53;;;13.38;100.00
28448;BME280;15675;52.870;-1.416;2022-08-01T01:48:53;101405.31;;;13.48;100.00
28448;BME280;15675;52.870;-1.416;2022-08-01T01:51:22;101393.16;;;13.56;100.00
28448;BME280;15675;52.870;-1.416;2022-08-01T01:53:52;101387.06;;;13.65;100.00
28448;BME280;15675;52.870;-1.416;2022-08-01T01:56:19;101384.47;;;13.67;100.00
28448;BME280;15675;52.870;-1.416;2022-08-01T01:58:50;101392.34;;;13.91;100.00
28448;BME280;15675;52.870;-1.416;2022-08-01T02:01:18;101390.59;;;13.64;100.00
28448;BME280;15675;52.870;-1.416;2022-08-01T02:03:44;101391.44;;;13.64;100.00
28448;BME280;15675;52.870;-1.416;2022-08-01T02:06:15;101388.75;;;13.35;100.00
28448;BME280;15675;52.870;-1.416;2022-08-01T02:08:42;101393.06;;;13.30;100.00
28448;BME280;15675;52.870;-1.416;2022-08-01T02:11:08;101398.25;;;13.24;100.00
28448;BME280;15675;52.870;-1.416;2022-08-01T02:13:59;101397.44;;;13.31;100.00
28448;BME280;15675;52.870;-1.416;2022-08-01T02:16:29;101397.47;;;13.40;100.00
28448;BME280;15675;52.870;-1.416;2022-08-01T02:18:57;101392.22;;;13.31;100.00
28448;BME280;15675;52.870;-1.416;2022-08-01T02:21:28;101394.03;;;13.66;100.00
28448;BME280;15675;52.870;-1.416;2022-08-01T02:23:59;101395.75;;;13.45;100.00
28448;BME280;15675;52.870;-1.416;2022-08-01T02:26:28;101391.41;;;13.46;100.00
28448;BME280;15675;52.870;-1.416;2022-08-01T02:28:57;101406.13;;;13.33;100.00
28448;BME280;15675;52.870;-1.416;2022-08-01T02:31:25;101400.06;;;13.37;100.00
28448;BME280;15675;52.870;-1.416;2022-08-01T02:33:58;101400.09;;;13.46;100.00
28448;BME280;15675;52.870;-1.416;2022-08-01T02:36:26;101404.34;;;13.23;100.00
28448;BME280;15675;52.870;-1.416;2022-08-01T02:38:54;101399.81;;;12.83;100.00
28448;BME280;15675;52.870;-1.416;2022-08-01T02:41:23;101398.78;;;12.53;100.00
28448;BME280;15675;52.870;-1.416;2022-08-01T02:43:52;101402.22;;;12.45;100.00
28448;BME280;15675;52.870;-1.416;2022-08-01T02:46:34;101416.06;;;12.39;100.00
28448;BME280;15675;52.870;-1.416;2022-08-01T02:49:02;101406.50;;;12.39;100.00
28448;BME280;15675;52.870;-1.416;2022-08-01T02:51:30;101407.44;;;12.48;100.00
28448;BME280;15675;52.870;-1.416;2022-08-01T02:53:57;101404.94;;;12.65;100.00
28448;BME280;15675;52.870;-1.416;2022-08-01T02:56:25;101403.34;;;12.96;100.00
28448;BME280;15675;52.870;-1.416;2022-08-01T02:59:13;101406.16;;;13.39;100.00
28448;BME280;15675;52.870;-1.416;2022-08-01T03:01:43;101406.22;;;13.70;100.00
28448;BME280;15675;52.870;-1.416;2022-08-01T03:04:11;101408.84;;;13.78;100.00
28448;BME280;15675;52.870;-1.416;2022-08-01T03:06:38;101395.81;;;13.62;100.00
28448;BME280;15675;52.870;-1.416;2022-08-01T03:09:06;101398.38;;;13.53;100.00
28448;BME280;15675;52.870;-1.416;2022-08-01T03:11:33;101398.31;;;13.38;100.00
28448;BME280;15675;52.870;-1.416;2022-08-01T03:14:02;101404.38;;;13.34;100.00
28448;BME280;15675;52.870;-1.416;2022-08-01T03:16:31;101395.72;;;13.36;100.00
28448;BME280;15675;52.870;-1.416;2022-08-01T03:19:00;101399.13;;;13.26;100.00
28448;BME280;15675;52.870;-1.416;2022-08-01T03:21:28;101400.81;;;13.11;100.00
28448;BME280;15675;52.870;-1.416;2022-08-01T03:23:58;101391.09;;;12.80;100.00
28448;BME280;15675;52.870;-1.416;2022-08-01T03:26:27;101385.75;;;12.49;100.00
28448;BME280;15675;52.870;-1.416;2022-08-01T03:28:56;101401.09;;;12.12;100.00
28448;BME280;15675;52.870;-1.416;2022-08-01T03:31:23;101400.00;;;11.92;100.00
28448;BME280;15675;52.870;-1.416;2022-08-01T03:33:50;101402.03;;;12.21;100.00
28448;BME280;15675;52.870;-1.416;2022-08-01T03:36:21;101395.25;;;12.47;100.00
28448;BME280;15675;52.870;-1.416;2022-08-01T03:38:50;101401.25;;;12.33;100.00
28448;BME280;15675;52.870;-1.416;2022-08-01T03:41:20;101399.63;;;12.51;100.00
28448;BME280;15675;52.870;-1.416;2022-08-01T03:43:48;101400.53;;;12.53;100.00
28448;BME280;15675;52.870;-1.416;2022-08-01T03:46:20;101409.94;;;12.38;100.00
28448;BME280;15675;52.870;-1.416;2022-08-01T03:48:48;101404.09;;;12.73;100.00
28448;BME280;15675;52.870;-1.416;2022-08-01T03:51:17;101397.31;;;13.06;100.00
28448;BME280;15675;52.870;-1.416;2022-08-01T03:53:45;101405.22;;;13.26;100.00
28448;BME280;15675;52.870;-1.416;2022-08-01T03:56:13;101398.44;;;13.84;100.00
28448;BME280;15675;52.870;-1.416;2022-08-01T03:58:42;101393.19;;;13.73;100.00
28448;BME280;15675;52.870;-1.416;2022-08-01T04:01:09;101388.81;;;13.64;100.00
28448;BME280;15675;52.870;-1.416;2022-08-01T04:03:35;101392.91;;;12.88;100.00
28448;BME280;15675;52.870;-1.416;2022-08-01T04:06:07;101392.78;;;12.65;100.00
28448;BME280;15675;52.870;-1.416;2022-08-01T04:08:38;101392.84;;;12.76;100.00
28448;BME280;15675;52.870;-1.416;2022-08-01T04:11:04;101393.75;;;12.83;100.00
28448;BME280;15675;52.870;-1.416;2022-08-01T04:13:31;101395.38;;;12.64;100.00
28448;BME280;15675;52.870;-1.416;2022-08-01T04:15:57;101403.34;;;12.88;100.00
28448;BME280;15675;52.870;-1.416;2022-08-01T04:18:22;101399.00;;;12.92;100.00
28448;BME280;15675;52.870;-1.416;2022-08-01T04:20:48;101398.16;;;12.96;100.00
28448;BME280;15675;52.870;-1.416;2022-08-01T04:23:20;101400.75;;;12.91;100.00
28448;BME280;15675;52.870;-1.416;2022-08-01T04:25:50;101398.81;;;12.58;100.00
28448;BME280;15675;52.870;-1.416;2022-08-01T04:28:16;101407.34;;;12.35;100.00
28448;BME280;15675;52.870;-1.416;2022-08-01T04:30:44;101415.13;;;12.35;100.00
28448;BME280;15675;52.870;-1.416;2022-08-01T04:33:13;101412.53;;;12.34;100.00
28448;BME280;15675;52.870;-1.416;2022-08-01T04:35:45;101410.72;;;12.25;100.00
28448;BME280;15675;52.870;-1.416;2022-08-01T04:38:14;101428.94;;;12.25;100.00
28448;BME280;15675;52.870;-1.416;2022-08-01T04:40:42;101428.97;;;12.26;100.00
28448;BME280;15675;52.870;-1.416;2022-08-01T04:43:11;101428.22;;;12.40;100.00
28448;BME280;15675;52.870;-1.416;2022-08-01T04:45:38;101410.03;;;12.49;100.00
28448;BME280;15675;52.870;-1.416;2022-08-01T04:48:08;101408.34;;;12.56;100.00
28448;BME280;15675;52.870;-1.416;2022-08-01T04:50:35;101413.56;;;12.57;100.00
28448;BME280;15675;52.870;-1.416;2022-08-01T04:53:02;101411.13;;;12.85;100.00
28448;BME280;15675;52.870;-1.416;2022-08-01T04:55:29;101416.06;;;12.43;100.00
28448;BME280;15675;52.870;-1.416;2022-08-01T04:57:56;101412.31;;;12.04;100.00
28448;BME280;15675;52.870;-1.416;2022-08-01T05:00:22;101412.31;;;12.03;100.00
28448;BME280;15675;52.870;-1.416;2022-08-01T05:02:47;101419.31;;;12.12;100.00
28448;BME280;15675;52.870;-1.416;2022-08-01T05:05:13;101412.66;;;12.54;100.00
28448;BME280;15675;52.870;-1.416;2022-08-01T05:07:40;101412.75;;;12.66;100.00
28448;BME280;15675;52.870;-1.416;2022-08-01T05:10:06;101417.13;;;12.70;100.00
28448;BME280;15675;52.870;-1.416;2022-08-01T05:12:31;101423.25;;;12.80;100.00
28448;BME280;15675;52.870;-1.416;2022-08-01T05:14:58;101418.06;;;12.86;100.00
28448;BME280;15675;52.870;-1.416;2022-08-01T05:17:25;101411.25;;;13.11;100.00
28448;BME280;15675;52.870;-1.416;2022-08-01T05:19:51;101412.94;;;13.02;100.00
28448;BME280;15675;52.870;-1.416;2022-08-01T05:22:16;101413.06;;;13.31;100.00
28448;BME280;15675;52.870;-1.416;2022-08-01T05:24:42;101411.31;;;13.25;100.00
28448;BME280;15675;52.870;-1.416;2022-08-01T05:27:08;101413.97;;;13.39;100.00
28448;BME280;15675;52.870;-1.416;2022-08-01T05:29:34;101417.53;;;13.55;100.00
28448;BME280;15675;52.870;-1.416;2022-08-01T05:32:00;101422.78;;;13.78;100.00
28448;BME280;15675;52.870;-1.416;2022-08-01T05:34:26;101421.06;;;14.27;100.00
28448;BME280;15675;52.870;-1.416;2022-08-01T05:36:52;101413.22;;;14.30;100.00
28448;BME280;15675;52.870;-1.416;2022-08-01T05:39:18;101407.13;;;14.36;100.00
28448;BME280;15675;52.870;-1.416;2022-08-01T05:41:44;101407.97;;;14.22;100.00
28448;BME280;15675;52.870;-1.416;2022-08-01T05:44:09;101407.09;;;14.42;100.00
28448;BME280;15675;52.870;-1.416;2022-08-01T05:46:35;101406.25;;;14.21;100.00
28448;BME280;15675;52.870;-1.416;2022-08-01T05:49:02;101407.97;;;14.50;100.00
28448;BME280;15675;52.870;-1.416;2022-08-01T05:51:29;101407.06;;;14.80;100.00
28448;BME280;15675;52.870;-1.416;2022-08-01T05:53:55;101409.63;;;14.93;100.00
28448;BME280;15675;52.870;-1.416;2022-08-01T05:56:21;101406.97;;;15.02;100.00
28448;BME280;15675;52.870;-1.416;2022-08-01T05:58:48;101406.91;;;15.22;100.00
28448;BME280;15675;52.870;-1.416;2022-08-01T06:01:15;101405.09;;;15.36;100.00
28448;BME280;15675;52.870;-1.416;2022-08-01T06:03:41;101412.84;;;15.53;100.00
28448;BME280;15675;52.870;-1.416;2022-08-01T06:06:07;101417.31;;;15.33;100.00
28448;BME280;15675;52.870;-1.416;2022-08-01T06:08:32;101416.38;;;15.46;100.00
28448;BME280;15675;52.870;-1.416;2022-08-01T06:10:59;101414.69;;;15.33;100.00
28448;BME280;15675;52.870;-1.416;2022-08-01T06:13:24;101426.09;;;15.12;100.00
28448;BME280;15675;52.870;-1.416;2022-08-01T06:15:50;101425.28;;;14.99;100.00
28448;BME280;15675;52.870;-1.416;2022-08-01T06:18:17;101432.31;;;14.92;100.00
28448;BME280;15675;52.870;-1.416;2022-08-01T06:20:43;101425.22;;;15.14;100.00
28448;BME280;15675;52.870;-1.416;2022-08-01T06:23:09;101414.84;;;14.99;100.00
28448;BME280;15675;52.870;-1.416;2022-08-01T06:25:35;101428.78;;;14.99;100.00
28448;BME280;15675;52.870;-1.416;2022-08-01T06:28:01;101422.63;;;15.21;100.00
28448;BME280;15675;52.870;-1.416;2022-08-01T06:30:27;101422.59;;;15.24;100.00
28448;BME280;15675;52.870;-1.416;2022-08-01T06:32:53;101420.81;;;15.27;100.00
28448;BME280;15675;52.870;-1.416;2022-08-01T06:35:21;101426.03;;;15.30;100.00
28448;BME280;15675;52.870;-1.416;2022-08-01T06:37:47;101427.75;;;15.42;100.00
28448;BME280;15675;52.870;-1.416;2022-08-01T06:40:13;101425.16;;;15.30;100.00
28448;BME280;15675;52.870;-1.416;2022-08-01T06:42:39;101421.59;;;15.43;100.00
28448;BME280;15675;52.870;-1.416;2022-08-01T06:45:06;101421.38;;;15.90;100.00
28448;BME280;15675;52.870;-1.416;2022-08-01T06:47:32;101425.72;;;15.87;100.00
28448;BME280;15675;52.870;-1.416;2022-08-01T06:49:58;101432.78;;;15.79;100.00
28448;BME280;15675;52.870;-1.416;2022-08-01T06:52:24;101427.44;;;15.93;100.00
28448;BME280;15675;52.870;-1.416;2022-08-01T06:54:50;101430.13;;;15.82;100.00
28448;BME280;15675;52.870;-1.416;2022-08-01T06:57:16;101428.22;;;16.04;100.00
28448;BME280;15675;52.870;-1.416;2022-08-01T06:59:42;101416.78;;;16.16;100.00
28448;BME280;15675;52.870;-1.416;2022-08-01T07:02:08;101418.47;;;16.24;100.00
28448;BME280;15675;52.870;-1.416;2022-08-01T07:04:34;101420.22;;;16.26;100.00
28448;BME280;15675;52.870;-1.416;2022-08-01T07:07:00;101407.69;;;16.54;100.00
28448;BME280;15675;52.870;-1.416;2022-08-01T07:09:26;101403.94;;;16.77;100.00
28448;BME280;15675;52.870;-1.416;2022-08-01T07:11:53;101404.72;;;16.87;100.00
28448;BME280;15675;52.870;-1.416;2022-08-01T07:14:21;101407.41;;;16.81;99.73
28448;BME280;15675;52.870;-1.416;2022-08-01T07:16:47;101409.28;;;16.71;97.92
28448;BME280;15675;52.870;-1.416;2022-08-01T07:19:13;101421.31;;;16.92;98.47
28448;BME280;15675;52.870;-1.416;2022-08-01T07:21:39;101411.81;;;16.77;98.36
28448;BME280;15675;52.870;-1.416;2022-08-01T07:24:10;101426.16;;;16.42;99.98
28448;BME280;15675;52.870;-1.416;2022-08-01T07:26:39;101420.19;;;16.28;100.00
28448;BME280;15675;52.870;-1.416;2022-08-01T07:29:04;101423.03;;;16.00;100.00
28448;BME280;15675;52.870;-1.416;2022-08-01T07:31:30;101417.41;;;16.46;100.00
28448;BME280;15675;52.870;-1.416;2022-08-01T07:33:56;101425.44;;;16.23;100.00
28448;BME280;15675;52.870;-1.416;2022-08-01T07:36:22;101424.69;;;16.09;100.00
28448;BME280;15675;52.870;-1.416;2022-08-01T07:38:48;101425.63;;;16.03;100.00
28448;BME280;15675;52.870;-1.416;2022-08-01T07:41:14;101428.03;;;16.25;100.00
28448;BME280;15675;52.870;-1.416;2022-08-01T07:43:40;101420.66;;;16.67;100.00
28448;BME280;15675;52.870;-1.416;2022-08-01T07:46:06;101419.75;;;16.72;99.60
28448;BME280;15675;52.870;-1.416;2022-08-01T07:48:31;101413.63;;;16.72;98.45
28448;BME280;15675;52.870;-1.416;2022-08-01T07:50:57;101424.50;;;16.33;96.16
28448;BME280;15675;52.870;-1.416;2022-08-01T07:53:23;101420.84;;;16.48;97.49
28448;BME280;15675;52.870;-1.416;2022-08-01T07:55:49;101419.22;;;16.36;98.11
28448;BME280;15675;52.870;-1.416;2022-08-01T07:58:15;101419.44;;;16.10;98.15
28448;BME280;15675;52.870;-1.416;2022-08-01T08:00:41;101414.63;;;16.60;96.23
28448;BME280;15675;52.870;-1.416;2022-08-01T08:03:07;101414.59;;;17.38;93.70
28448;BME280;15675;52.870;-1.416;2022-08-01T08:05:33;101417.44;;;17.22;89.76
28448;BME280;15675;52.870;-1.416;2022-08-01T08:08:08;101417.81;;;16.87;89.20
28448;BME280;15675;52.870;-1.416;2022-08-01T08:10:35;101419.25;;;17.16;87.15
28448;BME280;15675;52.870;-1.416;2022-08-01T08:13:02;101417.84;;;16.88;91.16
28448;BME280;15675;52.870;-1.416;2022-08-01T08:15:28;101407.31;;;16.91;89.42
28448;BME280;15675;52.870;-1.416;2022-08-01T08:17:54;101405.50;;;16.97;88.82
28448;BME280;15675;52.870;-1.416;2022-08-01T08:20:20;101411.09;;;17.39;87.18
28448;BME280;15675;52.870;-1.416;2022-08-01T08:22:55;101412.16;;;17.86;84.21
28448;BME280;15675;52.870;-1.416;2022-08-01T08:25:21;101403.66;;;17.70;82.74
28448;BME280;15675;52.870;-1.416;2022-08-01T08:27:49;101408.69;;;17.86;81.79
28448;BME280;15675;52.870;-1.416;2022-08-01T08:30:15;101405.28;;;17.77;81.96
28448;BME280;15675;52.870;-1.416;2022-08-01T08:32:41;101410.34;;;17.90;80.60
28448;BME280;15675;52.870;-1.416;2022-08-01T08:35:07;101404.38;;;17.82;80.88
28448;BME280;15675;52.870;-1.416;2022-08-01T08:37:34;101405.69;;;18.09;82.06
28448;BME280;15675;52.870;-1.416;2022-08-01T08:40:01;101397.09;;;18.49;80.44
28448;BME280;15675;52.870;-1.416;2022-08-01T08:42:26;101398.47;;;18.22;79.46
28448;BME280;15675;52.870;-1.416;2022-08-01T08:44:52;101392.47;;;18.62;77.12
28448;BME280;15675;52.870;-1.416;2022-08-01T08:47:21;101390.34;;;18.83;76.01
28448;BME280;15675;52.870;-1.416;2022-08-01T08:49:53;101382.38;;;18.87;72.37
28448;BME280;15675;52.870;-1.416;2022-08-01T08:52:20;101397.94;;;18.51;72.25
28448;BME280;15675;52.870;-1.416;2022-08-01T08:54:48;101394.84;;;18.76;73.74
28448;BME280;15675;52.870;-1.416;2022-08-01T08:57:15;101386.09;;;18.74;72.54
28448;BME280;15675;52.870;-1.416;2022-08-01T08:59:44;101381.13;;;19.05;71.27
28448;BME280;15675;52.870;-1.416;2022-08-01T09:02:10;101378.75;;;18.48;71.78
28448;BME280;15675;52.870;-1.416;2022-08-01T09:04:37;101374.00;;;19.10;72.03
28448;BME280;15675;52.870;-1.416;2022-08-01T09:07:05;101379.41;;;19.04;70.78
28448;BME280;15675;52.870;-1.416;2022-08-01T09:09:32;101377.75;;;18.53;69.22
28448;BME280;15675;52.870;-1.416;2022-08-01T09:11:58;101382.53;;;18.31;71.47
28448;BME280;15675;52.870;-1.416;2022-08-01T09:14:25;101375.91;;;18.58;70.85
28448;BME280;15675;52.870;-1.416;2022-08-01T09:17:05;101378.09;;;18.82;71.16
28448;BME280;15675;52.870;-1.416;2022-08-01T09:19:43;101384.72;;;19.03;69.36
28448;BME280;15675;52.870;-1.416;2022-08-01T09:22:12;101384.25;;;19.24;67.57
28448;BME280;15675;52.870;-1.416;2022-08-01T09:24:40;101386.28;;;19.51;66.76
28448;BME280;15675;52.870;-1.416;2022-08-01T09:27:17;101386.03;;;19.99;66.64
28448;BME280;15675;52.870;-1.416;2022-08-01T09:29:43;101377.78;;;20.13;64.49
28448;BME280;15675;52.870;-1.416;2022-08-01T09:32:10;101385.69;;;19.38;64.37
28448;BME280;15675;52.870;-1.416;2022-08-01T09:34:36;101382.03;;;19.43;63.64
28448;BME280;15675;52.870;-1.416;2022-08-01T09:37:02;101378.59;;;19.01;64.64
28448;BME280;15675;52.870;-1.416;2022-08-01T09:39:39;101374.47;;;18.89;64.79
28448;BME280;15675;52.870;-1.416;2022-08-01T09:42:26;101381.03;;;19.10;63.53
28448;BME280;15675;52.870;-1.416;2022-08-01T09:44:52;101376.59;;;19.53;63.85
28448;BME280;15675;52.870;-1.416;2022-08-01T09:47:19;101370.59;;;19.83;61.63
28448;BME280;15675;52.870;-1.416;2022-08-01T09:49:56;101370.38;;;20.27;61.18
28448;BME280;15675;52.870;-1.416;2022-08-01T09:52:25;101353.88;;;20.52;59.72
28448;BME280;15675;52.870;-1.416;2022-08-01T09:54:54;101353.38;;;20.71;59.38
28448;BME280;15675;52.870;-1.416;2022-08-01T09:57:20;101359.56;;;20.04;59.53
28448;BME280;15675;52.870;-1.416;2022-08-01T09:59:48;101359.38;;;19.74;61.04
28448;BME280;15675;52.870;-1.416;2022-08-01T10:02:27;101354.13;;;19.74;60.46
28448;BME280;15675;52.870;-1.416;2022-08-01T10:04:53;101347.31;;;20.03;60.33
28448;BME280;15675;52.870;-1.416;2022-08-01T10:07:20;101357.94;;;19.99;59.51
28448;BME280;15675;52.870;-1.416;2022-08-01T10:09:46;101348.38;;;19.95;59.80
28448;BME280;15675;52.870;-1.416;2022-08-01T10:12:16;101363.31;;;19.57;60.30
28448;BME280;15675;52.870;-1.416;2022-08-01T10:14:44;101360.06;;;19.83;60.58
28448;BME280;15675;52.870;-1.416;2022-08-01T10:17:15;101352.19;;;20.16;59.41
28448;BME280;15675;52.870;-1.416;2022-08-01T10:19:42;101349.81;;;20.40;58.65
28448;BME280;15675;52.870;-1.416;2022-08-01T10:22:11;101348.63;;;20.83;58.37
28448;BME280;15675;52.870;-1.416;2022-08-01T10:24:43;101361.81;;;20.83;57.74
28448;BME280;15675;52.870;-1.416;2022-08-01T10:27:11;101352.94;;;21.16;57.45
28448;BME280;15675;52.870;-1.416;2022-08-01T10:32:06;101366.13;;;21.16;57.02
28448;BME280;15675;52.870;-1.416;2022-08-01T10:34:35;101360.75;;;20.89;58.14
28448;BME280;15675;52.870;-1.416;2022-08-01T10:37:03;101363.09;;;20.37;57.81
28448;BME280;15675;52.870;-1.416;2022-08-01T10:39:31;101362.09;;;20.41;59.91
28448;BME280;15675;52.870;-1.416;2022-08-01T10:41:57;101358.75;;;20.66;58.80
28448;BME280;15675;52.870;-1.416;2022-08-01T10:44:25;101355.31;;;20.64;57.28
28448;BME280;15675;52.870;-1.416;2022-08-01T10:46:55;101349.84;;;21.01;57.71
28448;BME280;15675;52.870;-1.416;2022-08-01T10:49:26;101352.75;;;20.94;57.59
28448;BME280;15675;52.870;-1.416;2022-08-01T10:51:55;101343.13;;;21.21;57.57
28448;BME280;15675;52.870;-1.416;2022-08-01T10:54:24;101341.47;;;21.17;56.15
28448;BME280;15675;52.870;-1.416;2022-08-01T10:56:51;101346.25;;;21.62;55.58
28448;BME280;15675;52.870;-1.416;2022-08-01T10:59:24;101345.53;;;21.84;53.70
28448;BME280;15675;52.870;-1.416;2022-08-01T11:02:08;101351.44;;;21.92;54.35
28448;BME280;15675;52.870;-1.416;2022-08-01T11:04:45;101353.28;;;21.33;54.97
28448;BME280;15675;52.870;-1.416;2022-08-01T11:07:17;101346.56;;;21.23;55.75
28448;BME280;15675;52.870;-1.416;2022-08-01T11:09:46;101348.25;;;21.26;55.39
28448;BME280;15675;52.870;-1.416;2022-08-01T11:12:14;101342.16;;;21.52;55.19
28448;BME280;15675;52.870;-1.416;2022-08-01T11:17:37;101339.59;;;21.77;53.76
28448;BME280;15675;52.870;-1.416;2022-08-01T11:20:05;101329.44;;;22.17;55.19
28448;BME280;15675;52.870;-1.416;2022-08-01T11:22:31;101326.03;;;21.88;54.08
28448;BME280;15675;52.870;-1.416;2022-08-01T11:24:57;101324.69;;;21.48;54.07
28448;BME280;15675;52.870;-1.416;2022-08-01T11:27:31;101309.38;;;21.59;54.96
28448;BME280;15675;52.870;-1.416;2022-08-01T11:32:50;101313.22;;;21.76;54.14
28448;BME280;15675;52.870;-1.416;2022-08-01T11:35:17;101301.50;;;22.10;53.39
28448;BME280;15675;52.870;-1.416;2022-08-01T11:37:44;101313.03;;;22.07;54.50
28448;BME280;15675;52.870;-1.416;2022-08-01T11:40:25;101314.44;;;21.65;54.78
28448;BME280;15675;52.870;-1.416;2022-08-01T11:45:50;101309.84;;;21.97;54.24
28448;BME280;15675;52.870;-1.416;2022-08-01T11:48:23;101294.69;;;22.28;52.85
28448;BME280;15675;52.870;-1.416;2022-08-01T11:50:53;101288.03;;;21.92;54.10
28448;BME280;15675;52.870;-1.416;2022-08-01T11:53:20;101293.06;;;21.98;53.74
28448;BME280;15675;52.870;-1.416;2022-08-01T11:55:47;101289.34;;;22.29;52.99
28448;BME280;15675;52.870;-1.416;2022-08-01T11:58:14;101297.88;;;22.61;52.62
28448;BME280;15675;52.870;-1.416;2022-08-01T12:00:41;101290.81;;;22.62;52.05
28448;BME280;15675;52.870;-1.416;2022-08-01T12:03:15;101293.13;;;22.93;52.65
28448;BME280;15675;52.870;-1.416;2022-08-01T12:05:43;101294.81;;;22.96;52.47
28448;BME280;15675;52.870;-1.416;2022-08-01T12:08:09;101267.56;;;22.70;51.86
28448;BME280;15675;52.870;-1.416;2022-08-01T12:10:36;101288.47;;;22.78;51.20
28448;BME280;15675;52.870;-1.416;2022-08-01T12:13:04;101296.41;;;22.78;51.97
28448;BME280;15675;52.870;-1.416;2022-08-01T12:15:33;101285.84;;;22.03;51.89
28448;BME280;15675;52.870;-1.416;2022-08-01T12:18:02;101283.97;;;22.80;51.33
28448;BME280;15675;52.870;-1.416;2022-08-01T12:20:34;101291.16;;;22.76;51.70
28448;BME280;15675;52.870;-1.416;2022-08-01T12:23:10;101278.47;;;22.62;51.24
28448;BME280;15675;52.870;-1.416;2022-08-01T12:25:37;101282.00;;;22.37;51.30
28448;BME280;15675;52.870;-1.416;2022-08-01T12:28:07;101281.56;;;22.24;52.81
28448;BME280;15675;52.870;-1.416;2022-08-01T12:30:34;101276.59;;;22.64;52.19
28448;BME280;15675;52.870;-1.416;2022-08-01T12:33:06;101280.88;;;22.45;51.42
28448;BME280;15675;52.870;-1.416;2022-08-01T12:35:34;101271.69;;;22.30;50.79
28448;BME280;15675;52.870;-1.416;2022-08-01T12:38:03;101273.53;;;22.28;51.72
28448;BME280;15675;52.870;-1.416;2022-08-01T12:40:33;101268.75;;;22.39;51.41
28448;BME280;15675;52.870;-1.416;2022-08-01T12:43:05;101255.16;;;22.48;52.79
28448;BME280;15675;52.870;-1.416;2022-08-01T12:45:37;101251.69;;;22.70;52.07
28448;BME280;15675;52.870;-1.416;2022-08-01T12:48:15;101253.91;;;22.58;52.49
28448;BME280;15675;52.870;-1.416;2022-08-01T12:50:46;101249.16;;;22.45;52.21
28448;BME280;15675;52.870;-1.416;2022-08-01T12:53:12;101243.09;;;22.41;51.55
28448;BME280;15675;52.870;-1.416;2022-08-01T12:55:49;101247.63;;;22.37;51.74